Time,TemperatureF,DewpointF,PressureIn,WindDirection,WindDirectionDegrees,WindSpeedMPH,WindSpeedGustMPH,Humidity,HourlyPrecipIn,Conditions,Clouds,dailyrainin,SoftwareType,DateUTC
2013-04-05 00:00:00,41.2,37.9,30.95,SSE,153,1.0,1.0,88,0.04,,,0.01,VWS V13.01,2013-04-05 04:00:00,
2013-04-05 00:05:00,41.5,38.5,30.95,SSE,153,0.0,2.0,89,0.05,,,0.02,VWS V13.01,2013-04-05 04:05:00,
2013-04-05 00:10:00,41.8,38.8,30.95,SSE,153,1.0,1.0,89,0.06,,,0.03,VWS V13.01,2013-04-05 04:10:00,
2013-04-05 00:15:00,41.8,38.5,30.95,SSE,152,0.0,0.0,88,0.06,,,0.03,VWS V13.01,2013-04-05 04:15:00,
2013-04-05 00:20:00,41.9,38.6,30.95,SSE,153,0.0,1.0,88,0.06,,,0.04,VWS V13.01,2013-04-05 04:20:00,
2013-04-05 00:25:00,41.1,37.5,30.95,SSE,153,0.0,2.0,87,0.06,,,0.04,VWS V13.01,2013-04-05 04:25:00,
2013-04-05 00:30:00,41.1,38.1,30.95,SSE,152,1.0,1.0,89,0.07,,,0.05,VWS V13.01,2013-04-05 04:30:00,
2013-04-05 00:35:00,41.4,38.4,30.95,SSE,153,0.0,2.0,89,0.07,,,0.05,VWS V13.01,2013-04-05 04:35:00,
2013-04-05 00:40:00,41.4,38.1,30.95,SSE,153,0.0,0.0,88,0.07,,,0.06,VWS V13.01,2013-04-05 04:40:00,
2013-04-05 00:45:00,41.3,38.3,30.95,SSE,153,1.0,2.0,89,0.07,,,0.06,VWS V13.01,2013-04-05 04:45:00,
2013-04-05 00:50:00,41.6,38.6,30.95,SSE,153,0.0,1.0,89,0.07,,,0.07,VWS V13.01,2013-04-05 04:50:00,
2013-04-05 00:55:00,41.1,37.8,23.24,NE,42,0.0,3.0,88,0.06,,,0.07,VWS V13.01,2013-04-05 04:55:00,
2013-04-05 01:00:00,41.1,38.1,23.24,NE,42,1.0,3.0,89,0.06,,,0.07,VWS V13.01,2013-04-05 05:00:00,
2013-04-05 01:05:00,41.0,38.0,23.24,NE,44,2.0,4.0,89,0.05,,,0.07,VWS V13.01,2013-04-05 05:05:00,
2013-04-05 01:10:00,40.8,37.8,23.24,NE,51,1.0,2.0,89,0.05,,,0.07,VWS V13.01,2013-04-05 05:10:00,
2013-04-05 01:15:00,40.9,37.9,23.24,NE,51,0.0,1.0,89,0.05,,,0.08,VWS V13.01,2013-04-05 05:15:00,
2013-04-05 01:20:00,40.8,37.8,23.24,NE,51,1.0,2.0,89,0.04,,,0.08,VWS V13.01,2013-04-05 05:20:00,
2013-04-05 01:25:00,41.1,38.1,23.24,NE,51,2.0,2.0,89,0.04,,,0.08,VWS V13.01,2013-04-05 05:25:00,
2013-04-05 01:30:00,41.1,38.1,23.24,NE,51,1.0,1.0,89,0.03,,,0.08,VWS V13.01,2013-04-05 05:30:00,
2013-04-05 01:35:00,41.2,38.2,23.24,NE,51,1.0,1.0,89,0.03,,,0.08,VWS V13.01,2013-04-05 05:35:00,
2013-04-05 01:40:00,41.2,38.2,23.24,NE,51,1.0,3.0,89,0.03,,,0.08,VWS V13.01,2013-04-05 05:40:00,
2013-04-05 01:45:00,41.2,38.2,23.24,NE,51,1.0,1.0,89,0.02,,,0.08,VWS V13.01,2013-04-05 05:45:00,
2013-04-05 01:50:00,40.8,37.8,23.24,NE,51,0.0,1.0,89,0.01,,,0.08,VWS V13.01,2013-04-05 05:50:00,
2013-04-05 01:55:00,40.6,37.6,23.25,NE,51,1.0,3.0,89,0.01,,,0.08,VWS V13.01,2013-04-05 05:55:00,
2013-04-05 02:00:00,40.3,37.3,23.25,NNE,26,0.0,2.0,89,0.01,,,0.08,VWS V13.01,2013-04-05 06:00:00,
2013-04-05 02:05:00,40.7,37.7,23.25,NNE,26,0.0,2.0,89,0.01,,,0.08,VWS V13.01,2013-04-05 06:05:00,
2013-04-05 02:10:00,41.2,38.2,23.25,NNE,26,0.0,1.0,89,0.01,,,0.08,VWS V13.01,2013-04-05 06:10:00,
2013-04-05 02:15:00,41.4,38.4,23.25,NNE,25,0.0,1.0,89,0.01,,,0.09,VWS V13.01,2013-04-05 06:15:00,
2013-04-05 02:20:00,41.1,38.1,23.25,NNE,26,1.0,1.0,89,0.01,,,0.09,VWS V13.01,2013-04-05 06:20:00,
2013-04-05 02:25:00,41.1,38.1,23.25,NNE,26,0.0,0.0,89,0.01,,,0.09,VWS V13.01,2013-04-05 06:25:00,
2013-04-05 02:30:00,41.3,38.3,23.25,NNE,26,0.0,1.0,89,0.01,,,0.09,VWS V13.01,2013-04-05 06:30:00,
2013-04-05 02:35:00,40.9,37.9,23.25,NNE,24,0.0,3.0,89,0.01,,,0.09,VWS V13.01,2013-04-05 06:35:00,
2013-04-05 02:40:00,40.9,37.9,23.25,NNE,24,0.0,1.0,89,0.01,,,0.09,VWS V13.01,2013-04-05 06:40:00,
2013-04-05 02:45:00,40.9,37.9,23.25,NNE,24,1.0,2.0,89,0.01,,,0.09,VWS V13.01,2013-04-05 06:45:00,
2013-04-05 02:50:00,40.8,37.8,23.25,North,360,0.0,2.0,89,0.02,,,0.10,VWS V13.01,2013-04-05 06:50:00,
2013-04-05 02:55:00,41.1,38.1,23.25,North,5,0.0,2.0,89,0.02,,,0.10,VWS V13.01,2013-04-05 06:55:00,
2013-04-05 03:00:00,41.1,38.1,23.25,North,5,0.0,2.0,89,0.02,,,0.10,VWS V13.01,2013-04-05 07:00:00,
2013-04-05 03:05:00,41.2,38.2,23.25,North,5,0.0,3.0,89,0.02,,,0.10,VWS V13.01,2013-04-05 07:05:00,
2013-04-05 03:10:00,41.3,38.3,23.25,North,5,0.0,0.0,89,0.03,,,0.11,VWS V13.01,2013-04-05 07:10:00,
2013-04-05 03:15:00,41.2,38.2,23.24,North,5,0.0,1.0,89,0.03,,,0.12,VWS V13.01,2013-04-05 07:15:00,
2013-04-05 03:20:00,41.1,38.1,23.24,North,360,0.0,0.0,89,0.04,,,0.13,VWS V13.01,2013-04-05 07:20:00,
2013-04-05 03:25:00,41.5,38.8,23.24,North,5,0.0,1.0,90,0.04,,,0.13,VWS V13.01,2013-04-05 07:25:00,
2013-04-05 03:30:00,40.7,37.7,23.24,North,360,0.0,1.0,89,0.05,,,0.14,VWS V13.01,2013-04-05 07:30:00,
2013-04-05 03:35:00,40.6,37.6,23.25,North,5,0.0,2.0,89,0.05,,,0.14,VWS V13.01,2013-04-05 07:35:00,
2013-04-05 03:40:00,41.0,38.3,23.25,North,5,0.0,0.0,90,0.06,,,0.15,VWS V13.01,2013-04-05 07:40:00,
2013-04-05 03:45:00,41.3,38.6,23.25,North,5,1.0,3.0,90,0.06,,,0.15,VWS V13.01,2013-04-05 07:45:00,
2013-04-05 03:50:00,41.2,38.5,23.25,North,360,1.0,2.0,90,0.05,,,0.15,VWS V13.01,2013-04-05 07:50:00,
2013-04-05 03:55:00,40.8,37.8,23.25,NNW,346,1.0,4.0,89,0.05,,,0.15,VWS V13.01,2013-04-05 07:55:00,
2013-04-05 04:00:00,40.6,37.6,23.25,NNW,346,2.0,4.0,89,0.05,,,0.15,VWS V13.01,2013-04-05 08:00:00,
2013-04-05 04:05:00,40.7,37.7,23.25,NNW,331,0.0,4.0,89,0.05,,,0.15,VWS V13.01,2013-04-05 08:05:00,
2013-04-05 04:10:00,40.7,38.0,23.25,NNW,330,0.0,1.0,90,0.04,,,0.15,VWS V13.01,2013-04-05 08:10:00,
2013-04-05 04:15:00,41.1,38.4,23.25,NNW,331,1.0,1.0,90,0.04,,,0.16,VWS V13.01,2013-04-05 08:15:00,
2013-04-05 04:20:00,41.2,38.5,23.25,NNW,330,1.0,1.0,90,0.04,,,0.16,VWS V13.01,2013-04-05 08:20:00,
2013-04-05 04:25:00,41.1,38.4,23.25,NNW,331,0.0,3.0,90,0.03,,,0.16,VWS V13.01,2013-04-05 08:25:00,
2013-04-05 04:30:00,41.1,38.4,23.25,NNW,330,0.0,1.0,90,0.02,,,0.16,VWS V13.01,2013-04-05 08:30:00,
2013-04-05 04:35:00,41.1,38.4,23.25,NNW,330,0.0,1.0,90,0.02,,,0.17,VWS V13.01,2013-04-05 08:35:00,
2013-04-05 04:40:00,41.1,38.4,23.25,NNW,330,1.0,1.0,90,0.03,,,0.17,VWS V13.01,2013-04-05 08:40:00,
2013-04-05 04:45:00,41.1,38.4,23.25,NNW,330,0.0,0.0,90,0.02,,,0.17,VWS V13.01,2013-04-05 08:45:00,
2013-04-05 04:50:00,41.2,38.5,23.25,NNW,330,1.0,2.0,90,0.02,,,0.17,VWS V13.01,2013-04-05 08:50:00,
2013-04-05 04:55:00,41.5,38.8,23.25,NNW,330,0.0,1.0,90,0.02,,,0.17,VWS V13.01,2013-04-05 08:55:00,
2013-04-05 05:00:00,41.4,38.7,23.25,NNW,330,0.0,2.0,90,0.02,,,0.17,VWS V13.01,2013-04-05 09:00:00,
2013-04-05 05:05:00,41.4,38.7,23.25,NNW,329,0.0,1.0,90,0.02,,,0.17,VWS V13.01,2013-04-05 09:05:00,
2013-04-05 05:10:00,41.2,38.5,23.25,NNW,330,0.0,3.0,90,0.02,,,0.17,VWS V13.01,2013-04-05 09:10:00,
2013-04-05 05:15:00,41.4,38.7,23.25,NNW,330,0.0,1.0,90,0.03,,,0.18,VWS V13.01,2013-04-05 09:15:00,
2013-04-05 05:20:00,41.4,38.7,23.25,NNW,330,0.0,1.0,90,0.02,,,0.18,VWS V13.01,2013-04-05 09:20:00,
2013-04-05 05:25:00,41.4,38.7,23.25,NNW,330,0.0,0.0,90,0.02,,,0.18,VWS V13.01,2013-04-05 09:25:00,
2013-04-05 05:30:00,41.1,38.4,23.25,NNW,330,0.0,2.0,90,0.02,,,0.18,VWS V13.01,2013-04-05 09:30:00,
2013-04-05 05:35:00,41.5,38.8,23.25,NNW,330,0.0,1.0,90,0.02,,,0.18,VWS V13.01,2013-04-05 09:35:00,
2013-04-05 05:40:00,41.7,39.0,23.25,NNW,330,1.0,1.0,90,0.01,,,0.18,VWS V13.01,2013-04-05 09:40:00,
2013-04-05 05:45:00,41.5,38.8,23.25,NNW,330,0.0,2.0,90,0.01,,,0.18,VWS V13.01,2013-04-05 09:45:00,
2013-04-05 05:50:00,41.5,38.8,23.25,NNW,330,0.0,2.0,90,0.01,,,0.18,VWS V13.01,2013-04-05 09:50:00,
2013-04-05 05:55:00,41.3,38.3,32.45,NNW,329,1.0,3.0,89,0.01,,,0.18,VWS V13.01,2013-04-05 09:55:00,
2013-04-05 06:00:00,41.2,38.5,32.45,NW,314,3.0,4.0,90,0.01,,,0.18,VWS V13.01,2013-04-05 10:00:00,
2013-04-05 06:06:00,41.2,38.5,23.25,NW,314,0.0,2.0,90,0.01,,,0.18,VWS V13.01,2013-04-05 10:06:00,
2013-04-05 06:11:00,41.3,38.6,23.25,NW,314,0.0,2.0,90,0.01,,,0.18,VWS V13.01,2013-04-05 10:11:00,
2013-04-05 06:15:00,41.1,38.1,23.25,NW,312,4.0,4.0,89,0.00,,,0.18,VWS V13.01,2013-04-05 10:15:00,
2013-04-05 06:20:00,41.1,38.4,23.25,NW,306,0.0,3.0,90,0.00,,,0.18,VWS V13.01,2013-04-05 10:20:00,
2013-04-05 06:26:00,41.2,38.5,23.25,WNW,296,2.0,2.0,90,0.00,,,0.18,VWS V13.01,2013-04-05 10:26:00,
2013-04-05 06:31:00,41.2,38.5,23.25,WNW,296,0.0,3.0,90,0.00,,,0.18,VWS V13.01,2013-04-05 10:31:00,
2013-04-05 06:36:00,41.3,38.6,23.25,WNW,295,0.0,3.0,90,0.00,,,0.18,VWS V13.01,2013-04-05 10:36:00,
2013-04-05 06:41:00,41.3,38.6,23.25,WNW,296,2.0,2.0,90,0.00,,,0.18,VWS V13.01,2013-04-05 10:41:00,
2013-04-05 06:46:00,41.3,38.3,23.25,WNW,295,1.0,2.0,89,0.00,,,0.18,VWS V13.01,2013-04-05 10:46:00,
2013-04-05 06:51:00,41.3,38.3,23.25,West,270,2.0,4.0,89,0.00,,,0.18,VWS V13.01,2013-04-05 10:51:00,
2013-04-05 06:56:00,41.3,38.6,23.25,West,281,1.0,4.0,90,0.00,,,0.18,VWS V13.01,2013-04-05 10:56:00,
2013-04-05 07:01:00,41.4,38.7,23.25,WNW,286,1.0,4.0,90,0.00,,,0.18,VWS V13.01,2013-04-05 11:01:00,
2013-04-05 07:06:00,41.3,38.3,23.25,WNW,287,1.0,4.0,89,0.00,,,0.18,VWS V13.01,2013-04-05 11:06:00,
2013-04-05 07:11:00,41.1,38.1,23.25,West,278,3.0,7.0,89,0.00,,,0.18,VWS V13.01,2013-04-05 11:11:00,
2013-04-05 07:16:00,41.3,38.6,31.70,WNW,286,5.0,5.0,90,0.00,,,0.18,VWS V13.01,2013-04-05 11:16:00,
2013-04-05 07:21:00,41.3,38.6,31.70,WNW,290,4.0,7.0,90,0.00,,,0.18,VWS V13.01,2013-04-05 11:21:00,
2013-04-05 07:26:00,40.9,37.9,31.70,WNW,292,5.0,11.0,89,0.00,,,0.18,VWS V13.01,2013-04-05 11:26:00,
2013-04-05 07:31:00,41.1,38.4,31.70,WNW,286,3.0,6.0,90,0.00,,,0.18,VWS V13.01,2013-04-05 11:31:00,
2013-04-05 07:36:00,41.0,38.3,31.70,West,272,3.0,5.0,90,0.00,,,0.18,VWS V13.01,2013-04-05 11:36:00,
2013-04-05 07:41:00,40.9,38.2,31.70,West,281,2.0,5.0,90,0.00,,,0.18,VWS V13.01,2013-04-05 11:41:00,
2013-04-05 07:46:00,40.8,38.1,31.70,WNW,284,3.0,5.0,90,0.00,,,0.18,VWS V13.01,2013-04-05 11:46:00,
2013-04-05 07:51:00,40.9,38.2,31.70,NW,310,4.0,6.0,90,0.00,,,0.18,VWS V13.01,2013-04-05 11:51:00,
2013-04-05 07:56:00,41.1,38.4,31.70,NW,309,2.0,5.0,90,0.00,,,0.18,VWS V13.01,2013-04-05 11:56:00,
2013-04-05 08:01:00,41.1,38.1,31.70,West,280,3.0,6.0,89,0.00,,,0.18,VWS V13.01,2013-04-05 12:01:00,
2013-04-05 08:07:00,40.9,37.9,31.70,WSW,241,5.0,6.0,89,0.00,,,0.18,VWS V13.01,2013-04-05 12:07:00,
2013-04-05 08:12:00,40.8,37.8,31.70,West,261,5.0,6.0,89,0.00,,,0.18,VWS V13.01,2013-04-05 12:12:00,
2013-04-05 08:17:00,41.0,38.0,31.70,West,279,5.0,7.0,89,0.00,,,0.18,VWS V13.01,2013-04-05 12:17:00,
2013-04-05 08:22:00,41.3,38.3,31.70,WNW,292,0.0,7.0,89,0.00,,,0.18,VWS V13.01,2013-04-05 12:22:00,
2013-04-05 08:27:00,41.8,38.5,31.70,West,277,5.0,5.0,88,0.00,,,0.18,VWS V13.01,2013-04-05 12:27:00,
2013-04-05 08:32:00,41.7,39.5,31.70,West,261,2.0,5.0,92,0.00,,,0.18,VWS V13.01,2013-04-05 12:32:00,
2013-04-05 08:37:00,41.8,38.5,31.70,West,260,1.0,3.0,88,0.00,,,0.18,VWS V13.01,2013-04-05 12:37:00,
2013-04-05 08:42:00,42.2,38.6,31.70,West,277,5.0,6.0,87,0.00,,,0.18,VWS V13.01,2013-04-05 12:42:00,
2013-04-05 08:47:00,42.1,38.2,31.70,WNW,286,3.0,8.0,86,0.00,,,0.18,VWS V13.01,2013-04-05 12:47:00,
2013-04-05 08:52:00,42.4,38.2,31.70,WNW,287,2.0,7.0,85,0.00,,,0.18,VWS V13.01,2013-04-05 12:52:00,
2013-04-05 08:57:00,42.8,38.6,31.70,WNW,285,1.0,6.0,85,0.00,,,0.18,VWS V13.01,2013-04-05 12:57:00,
2013-04-05 09:02:00,43.3,38.8,23.24,West,271,2.0,6.0,84,0.00,,,0.18,VWS V13.01,2013-04-05 13:02:00,
2013-04-05 09:07:00,43.8,39.0,23.24,WNW,286,4.0,5.0,83,0.00,,,0.18,VWS V13.01,2013-04-05 13:07:00,
2013-04-05 09:12:00,44.3,39.5,23.24,West,278,2.0,4.0,83,0.00,,,0.18,VWS V13.01,2013-04-05 13:12:00,
2013-04-05 09:17:00,44.9,39.4,23.24,WNW,288,3.0,5.0,81,0.00,,,0.18,VWS V13.01,2013-04-05 13:17:00,
2013-04-05 09:22:00,45.2,39.7,23.24,West,271,2.0,6.0,81,0.00,,,0.18,VWS V13.01,2013-04-05 13:22:00,
2013-04-05 09:27:00,45.5,39.4,23.24,WNW,292,3.0,7.0,79,0.00,,,0.18,VWS V13.01,2013-04-05 13:27:00,
2013-04-05 09:32:00,46.0,39.9,23.24,West,275,2.0,5.0,79,0.00,,,0.18,VWS V13.01,2013-04-05 13:32:00,
2013-04-05 09:37:00,46.7,39.9,23.24,WNW,285,4.0,6.0,77,0.00,,,0.18,VWS V13.01,2013-04-05 13:37:00,
2013-04-05 09:42:00,47.2,40.0,23.24,WNW,287,1.0,5.0,76,0.00,,,0.18,VWS V13.01,2013-04-05 13:42:00,
2013-04-05 09:47:00,47.9,39.3,23.24,WNW,284,3.0,9.0,72,0.00,,,0.18,VWS V13.01,2013-04-05 13:47:00,
2013-04-05 09:52:00,48.3,39.7,23.24,WSW,249,5.0,9.0,72,0.00,,,0.18,VWS V13.01,2013-04-05 13:52:00,
2013-04-05 09:57:00,48.7,39.4,23.24,WNW,287,7.0,8.0,70,0.00,,,0.18,VWS V13.01,2013-04-05 13:57:00,
2013-04-05 10:02:00,48.9,39.2,23.24,WNW,284,3.0,11.0,69,0.00,,,0.18,VWS V13.01,2013-04-05 14:02:00,
2013-04-05 10:07:00,49.5,39.4,23.24,WNW,296,9.0,10.0,68,0.00,,,0.18,VWS V13.01,2013-04-05 14:07:00,
2013-04-05 10:12:00,49.8,38.9,23.24,WSW,253,7.0,14.0,66,0.00,,,0.18,VWS V13.01,2013-04-05 14:12:00,
2013-04-05 10:17:00,50.3,38.6,23.24,West,265,7.0,13.0,64,0.00,,,0.18,VWS V13.01,2013-04-05 14:17:00,
2013-04-05 10:22:00,50.8,38.7,23.24,WNW,292,5.0,9.0,63,0.00,,,0.18,VWS V13.01,2013-04-05 14:22:00,
2013-04-05 10:27:00,51.3,38.3,23.24,NW,311,9.0,11.0,61,0.00,,,0.18,VWS V13.01,2013-04-05 14:27:00,
2013-04-05 10:32:00,51.7,38.7,23.24,WNW,302,9.0,12.0,61,0.00,,,0.18,VWS V13.01,2013-04-05 14:32:00,
2013-04-05 10:37:00,51.7,37.8,23.24,WSW,254,13.0,15.0,59,0.00,,,0.18,VWS V13.01,2013-04-05 14:37:00,
2013-04-05 10:42:00,52.1,37.3,23.24,West,275,6.0,12.0,57,0.00,,,0.18,VWS V13.01,2013-04-05 14:42:00,
2013-04-05 10:47:00,52.5,38.2,23.24,West,266,5.0,15.0,58,0.00,,,0.18,VWS V13.01,2013-04-05 14:47:00,
2013-04-05 10:53:00,53.0,37.7,23.24,West,265,3.0,15.0,56,0.00,,,0.18,VWS V13.01,2013-04-05 14:53:00,
2013-04-05 10:57:00,53.2,37.5,23.24,WNW,299,10.0,12.0,55,0.00,,,0.18,VWS V13.01,2013-04-05 14:57:00,
2013-04-05 11:03:00,53.6,37.8,23.24,West,271,11.0,12.0,55,0.00,,,0.18,VWS V13.01,2013-04-05 15:03:00,
2013-04-05 11:07:00,53.6,37.4,23.24,West,278,14.0,14.0,54,0.00,,,0.18,VWS V13.01,2013-04-05 15:07:00,
2013-04-05 11:12:00,54.1,38.3,23.24,WNW,300,5.0,11.0,55,0.00,,,0.18,VWS V13.01,2013-04-05 15:12:00,
2013-04-05 11:18:00,54.6,37.8,23.24,WNW,291,11.0,13.0,53,0.00,,,0.18,VWS V13.01,2013-04-05 15:18:00,
2013-04-05 11:23:00,55.1,38.3,23.24,WSW,245,6.0,9.0,53,0.00,,,0.18,VWS V13.01,2013-04-05 15:23:00,
2013-04-05 11:28:00,54.9,37.1,23.24,West,261,5.0,18.0,51,0.00,,,0.18,VWS V13.01,2013-04-05 15:28:00,
2013-04-05 11:33:00,55.0,37.7,23.24,SW,216,4.0,10.0,52,0.00,,,0.18,VWS V13.01,2013-04-05 15:33:00,
2013-04-05 11:38:00,55.7,38.4,23.24,West,271,6.0,12.0,52,0.00,,,0.18,VWS V13.01,2013-04-05 15:38:00,
2013-04-05 11:43:00,55.6,37.8,23.24,WSW,241,8.0,13.0,51,0.00,,,0.18,VWS V13.01,2013-04-05 15:43:00,
2013-04-05 11:48:00,55.4,37.6,23.24,West,281,12.0,15.0,51,0.00,,,0.18,VWS V13.01,2013-04-05 15:48:00,
2013-04-05 11:53:00,56.0,38.2,23.24,SW,227,3.0,11.0,51,0.00,,,0.18,VWS V13.01,2013-04-05 15:53:00,
2013-04-05 11:58:00,56.6,38.2,23.24,WNW,287,6.0,12.0,50,0.00,,,0.18,VWS V13.01,2013-04-05 15:58:00,
2013-04-05 12:03:00,57.1,38.7,23.24,WSW,249,3.0,11.0,50,0.00,,,0.18,VWS V13.01,2013-04-05 16:03:00,
2013-04-05 12:08:00,57.4,37.9,23.24,WSW,248,3.0,12.0,48,0.00,,,0.18,VWS V13.01,2013-04-05 16:08:00,
2013-04-05 12:13:00,57.1,37.1,23.24,WNW,289,4.0,13.0,47,0.00,,,0.18,VWS V13.01,2013-04-05 16:13:00,
2013-04-05 12:18:00,57.3,37.3,23.24,WSW,242,12.0,13.0,47,0.00,,,0.18,VWS V13.01,2013-04-05 16:18:00,
2013-04-05 12:23:00,57.3,36.2,23.24,West,281,9.0,17.0,45,0.00,,,0.18,VWS V13.01,2013-04-05 16:23:00,
2013-04-05 12:28:00,56.9,36.3,23.24,West,277,6.0,16.0,46,0.00,,,0.18,VWS V13.01,2013-04-05 16:28:00,
2013-04-05 12:33:00,57.7,37.1,23.24,SW,225,7.0,13.0,46,0.00,,,0.18,VWS V13.01,2013-04-05 16:33:00,
2013-04-05 12:38:00,58.3,37.1,23.24,WSW,248,2.0,11.0,45,0.00,,,0.18,VWS V13.01,2013-04-05 16:38:00,
2013-04-05 12:43:00,59.0,37.1,23.24,WNW,290,4.0,12.0,44,0.00,,,0.18,VWS V13.01,2013-04-05 16:43:00,
2013-04-05 12:48:00,59.0,36.6,23.24,WNW,298,7.0,10.0,43,0.00,,,0.18,VWS V13.01,2013-04-05 16:48:00,
2013-04-05 12:53:00,58.9,34.6,23.24,NW,313,9.0,15.0,40,0.00,,,0.18,VWS V13.01,2013-04-05 16:53:00,
2013-04-05 12:58:00,58.5,34.9,23.24,WNW,295,6.0,16.0,41,0.00,,,0.18,VWS V13.01,2013-04-05 16:58:00,
2013-04-05 13:03:00,58.7,35.7,23.24,West,280,13.0,15.0,42,0.00,,,0.18,VWS V13.01,2013-04-05 17:03:00,
2013-04-05 13:08:00,59.0,35.3,23.24,WNW,296,13.0,15.0,41,0.00,,,0.18,VWS V13.01,2013-04-05 17:08:00,
2013-04-05 13:13:00,58.7,35.1,23.24,NW,326,2.0,16.0,41,0.00,,,0.18,VWS V13.01,2013-04-05 17:13:00,
2013-04-05 13:18:00,59.2,34.3,23.24,West,267,9.0,15.0,39,0.00,,,0.18,VWS V13.01,2013-04-05 17:18:00,
2013-04-05 13:23:00,59.3,34.4,23.24,WNW,286,11.0,15.0,39,0.00,,,0.18,VWS V13.01,2013-04-05 17:23:00,
2013-04-05 13:28:00,60.0,35.6,23.24,West,279,5.0,15.0,40,0.00,,,0.18,VWS V13.01,2013-04-05 17:28:00,
2013-04-05 13:33:00,60.2,35.2,23.24,SW,233,5.0,11.0,39,0.00,,,0.18,VWS V13.01,2013-04-05 17:33:00,
2013-04-05 13:38:00,60.2,33.8,32.45,WNW,284,5.0,14.0,37,0.00,,,0.18,VWS V13.01,2013-04-05 17:38:00,
2013-04-05 13:43:00,60.5,35.4,32.45,WNW,298,11.0,11.0,39,0.00,,,0.18,VWS V13.01,2013-04-05 17:43:00,
2013-04-05 13:48:00,60.2,33.8,32.45,NW,309,8.0,17.0,37,0.00,,,0.18,VWS V13.01,2013-04-05 17:48:00,
2013-04-05 13:54:00,60.6,33.5,32.45,West,261,10.0,12.0,36,0.00,,,0.18,VWS V13.01,2013-04-05 17:54:00,
2013-04-05 13:59:00,61.1,34.0,32.45,West,273,1.0,4.0,36,0.00,,,0.18,VWS V13.01,2013-04-05 17:59:00,
2013-04-05 14:04:00,61.9,34.7,31.70,West,271,4.0,9.0,36,0.00,,,0.18,VWS V13.01,2013-04-05 18:04:00,
2013-04-05 14:09:00,61.7,33.8,31.70,West,265,17.0,17.0,35,0.00,,,0.18,VWS V13.01,2013-04-05 18:09:00,
2013-04-05 14:14:00,61.5,33.6,31.70,WNW,286,10.0,10.0,35,0.00,,,0.18,VWS V13.01,2013-04-05 18:14:00,
2013-04-05 14:19:00,61.4,34.2,31.70,WNW,285,6.0,16.0,36,0.00,,,0.18,VWS V13.01,2013-04-05 18:19:00,
2013-04-05 14:24:00,61.3,33.4,31.70,WNW,294,17.0,17.0,35,0.00,,,0.18,VWS V13.01,2013-04-05 18:24:00,
2013-04-05 14:29:00,61.4,33.5,31.70,WNW,290,13.0,13.0,35,0.00,,,0.18,VWS V13.01,2013-04-05 18:29:00,
2013-04-05 14:34:00,61.8,34.6,31.70,NW,316,4.0,11.0,36,0.00,,,0.18,VWS V13.01,2013-04-05 18:34:00,
2013-04-05 14:39:00,62.5,35.9,31.70,WNW,292,4.0,11.0,37,0.00,,,0.18,VWS V13.01,2013-04-05 18:39:00,
2013-04-05 14:44:00,62.5,34.5,31.70,WNW,302,8.0,12.0,35,0.00,,,0.18,VWS V13.01,2013-04-05 18:44:00,
2013-04-05 14:49:00,62.4,34.4,31.70,WNW,286,2.0,6.0,35,0.00,,,0.18,VWS V13.01,2013-04-05 18:49:00,
2013-04-05 14:55:00,62.5,34.5,31.70,West,281,10.0,16.0,35,0.00,,,0.18,VWS V13.01,2013-04-05 18:55:00,
2013-04-05 14:59:00,62.4,35.1,31.70,SW,218,2.0,10.0,36,0.00,,,0.18,VWS V13.01,2013-04-05 18:59:00,
2013-04-05 15:04:00,62.7,34.7,31.70,WNW,298,8.0,8.0,35,0.00,,,0.18,VWS V13.01,2013-04-05 19:04:00,
2013-04-05 15:09:00,62.5,34.5,31.70,WNW,300,4.0,9.0,35,0.00,,,0.18,VWS V13.01,2013-04-05 19:09:00,
2013-04-05 15:15:00,62.7,36.1,31.70,SW,225,12.0,17.0,37,0.00,,,0.18,VWS V13.01,2013-04-05 19:15:00,
2013-04-05 15:20:00,63.0,35.7,31.70,SW,222,5.0,9.0,36,0.00,,,0.18,VWS V13.01,2013-04-05 19:20:00,
2013-04-05 15:25:00,62.9,35.6,31.70,WNW,301,10.0,10.0,36,0.00,,,0.18,VWS V13.01,2013-04-05 19:25:00,
2013-04-05 15:30:00,62.9,34.8,31.70,WNW,295,10.0,13.0,35,0.00,,,0.18,VWS V13.01,2013-04-05 19:30:00,
2013-04-05 15:35:00,63.2,35.1,31.70,West,276,9.0,14.0,35,0.00,,,0.18,VWS V13.01,2013-04-05 19:35:00,
2013-04-05 15:40:00,63.7,35.6,31.70,SW,232,2.0,10.0,35,0.00,,,0.18,VWS V13.01,2013-04-05 19:40:00,
2013-04-05 15:45:00,64.3,36.1,31.70,West,264,3.0,3.0,35,0.00,,,0.18,VWS V13.01,2013-04-05 19:45:00,
2013-04-05 15:50:00,64.6,36.3,31.70,WNW,296,1.0,11.0,35,0.00,,,0.18,VWS V13.01,2013-04-05 19:50:00,
2013-04-05 15:55:00,65.0,36.0,31.70,SW,218,8.0,14.0,34,0.00,,,0.18,VWS V13.01,2013-04-05 19:55:00,
2013-04-05 16:00:00,64.7,35.7,31.70,WNW,286,3.0,5.0,34,0.00,,,0.18,VWS V13.01,2013-04-05 20:00:00,
2013-04-05 16:05:00,65.0,36.7,31.70,SW,236,6.0,7.0,35,0.00,,,0.18,VWS V13.01,2013-04-05 20:05:00,
2013-04-05 16:10:00,65.2,35.4,31.70,SSW,200,2.0,9.0,33,0.00,,,0.18,VWS V13.01,2013-04-05 20:10:00,
2013-04-05 16:15:00,65.3,36.2,31.70,SW,215,3.0,8.0,34,0.00,,,0.18,VWS V13.01,2013-04-05 20:15:00,
2013-04-05 16:20:00,65.0,36.0,31.70,WSW,238,8.0,12.0,34,0.00,,,0.18,VWS V13.01,2013-04-05 20:20:00,
2013-04-05 16:25:00,65.0,36.0,31.70,WNW,284,8.0,11.0,34,0.00,,,0.18,VWS V13.01,2013-04-05 20:25:00,
2013-04-05 16:30:00,65.2,36.2,31.70,WSW,242,0.0,4.0,34,0.00,,,0.18,VWS V13.01,2013-04-05 20:30:00,
2013-04-05 16:35:00,65.0,35.2,31.70,West,269,4.0,9.0,33,0.00,,,0.18,VWS V13.01,2013-04-05 20:35:00,
2013-04-05 16:40:00,65.2,35.4,31.70,WNW,287,11.0,13.0,33,0.00,,,0.18,VWS V13.01,2013-04-05 20:40:00,
2013-04-05 16:45:00,65.2,36.2,31.70,WNW,284,3.0,7.0,34,0.00,,,0.18,VWS V13.01,2013-04-05 20:45:00,
2013-04-05 16:50:00,65.4,36.3,31.70,WSW,240,1.0,5.0,34,0.00,,,0.18,VWS V13.01,2013-04-05 20:50:00,
2013-04-05 16:55:00,65.8,36.7,32.45,NNW,333,1.0,6.0,34,0.00,,,0.18,VWS V13.01,2013-04-05 20:55:00,
2013-04-05 17:00:00,66.2,36.3,32.45,West,262,13.0,13.0,33,0.00,,,0.18,VWS V13.01,2013-04-05 21:00:00,
2013-04-05 17:05:00,66.3,37.1,32.45,WNW,288,2.0,9.0,34,0.00,,,0.18,VWS V13.01,2013-04-05 21:05:00,
2013-04-05 17:10:00,66.3,37.1,32.45,WNW,296,3.0,9.0,34,0.00,,,0.18,VWS V13.01,2013-04-05 21:10:00,
2013-04-05 17:15:00,66.6,37.4,32.45,WSW,252,5.0,14.0,34,0.00,,,0.18,VWS V13.01,2013-04-05 21:15:00,
2013-04-05 17:20:00,66.3,36.4,32.45,SW,215,10.0,11.0,33,0.00,,,0.18,VWS V13.01,2013-04-05 21:20:00,
2013-04-05 17:25:00,66.2,37.0,32.45,WSW,252,5.0,10.0,34,0.00,,,0.18,VWS V13.01,2013-04-05 21:25:00,
2013-04-05 17:30:00,66.3,37.8,32.45,WSW,258,4.0,10.0,35,0.00,,,0.18,VWS V13.01,2013-04-05 21:30:00,
2013-04-05 17:35:00,66.6,38.8,32.45,West,273,12.0,12.0,36,0.00,,,0.18,VWS V13.01,2013-04-05 21:35:00,
2013-04-05 17:40:00,66.5,38.0,32.45,WNW,289,2.0,12.0,35,0.00,,,0.18,VWS V13.01,2013-04-05 21:40:00,
2013-04-05 17:45:00,66.6,38.1,32.45,West,262,11.0,17.0,35,0.00,,,0.18,VWS V13.01,2013-04-05 21:45:00,
2013-04-05 17:50:00,66.0,37.6,32.45,WNW,287,13.0,15.0,35,0.00,,,0.18,VWS V13.01,2013-04-05 21:50:00,
2013-04-05 17:55:00,65.6,37.2,32.44,WNW,300,10.0,13.0,35,0.00,,,0.18,VWS V13.01,2013-04-05 21:55:00,
2013-04-05 18:00:00,65.6,38.0,32.44,West,272,7.0,12.0,36,0.00,,,0.18,VWS V13.01,2013-04-05 22:00:00,
2013-04-05 18:05:00,65.5,37.2,32.44,WNW,302,12.0,14.0,35,0.00,,,0.18,VWS V13.01,2013-04-05 22:05:00,
2013-04-05 18:10:00,65.4,37.8,32.44,West,277,8.0,17.0,36,0.00,,,0.18,VWS V13.01,2013-04-05 22:10:00,
2013-04-05 18:15:00,65.1,37.5,32.44,West,281,7.0,14.0,36,0.00,,,0.18,VWS V13.01,2013-04-05 22:15:00,
2013-04-05 18:20:00,65.2,37.6,32.44,WNW,288,9.0,17.0,36,0.00,,,0.18,VWS V13.01,2013-04-05 22:20:00,
2013-04-05 18:25:00,64.9,37.3,32.44,WNW,296,5.0,13.0,36,0.00,,,0.18,VWS V13.01,2013-04-05 22:25:00,
2013-04-05 18:30:00,64.9,36.6,32.44,NW,313,7.0,16.0,35,0.00,,,0.18,VWS V13.01,2013-04-05 22:30:00,
2013-04-05 18:35:00,64.4,36.9,32.44,NW,309,11.0,16.0,36,0.00,,,0.18,VWS V13.01,2013-04-05 22:35:00,
2013-04-05 18:40:00,64.1,36.6,32.44,West,279,6.0,12.0,36,0.00,,,0.18,VWS V13.01,2013-04-05 22:40:00,
2013-04-05 18:46:00,64.0,36.5,32.44,WNW,300,5.0,11.0,36,0.00,,,0.18,VWS V13.01,2013-04-05 22:46:00,
2013-04-05 18:51:00,63.7,36.3,32.44,WNW,297,10.0,11.0,36,0.00,,,0.18,VWS V13.01,2013-04-05 22:51:00,
2013-04-05 18:56:00,63.6,36.2,32.44,WNW,302,3.0,10.0,36,0.00,,,0.18,VWS V13.01,2013-04-05 22:56:00,
2013-04-05 19:01:00,63.3,36.6,32.44,WNW,292,9.0,15.0,37,0.00,,,0.18,VWS V13.01,2013-04-05 23:01:00,
2013-04-05 19:06:00,63.0,35.7,31.68,WNW,289,6.0,17.0,36,0.00,,,0.18,VWS V13.01,2013-04-05 23:06:00,
2013-04-05 19:11:00,62.8,36.2,31.68,WNW,286,7.0,9.0,37,0.00,,,0.18,VWS V13.01,2013-04-05 23:11:00,
2013-04-05 19:16:00,62.7,36.1,31.68,West,263,6.0,14.0,37,0.00,,,0.18,VWS V13.01,2013-04-05 23:16:00,
2013-04-05 19:21:00,62.5,36.6,31.68,West,279,5.0,9.0,38,0.00,,,0.18,VWS V13.01,2013-04-05 23:21:00,
2013-04-05 19:26:00,62.3,36.4,31.68,West,271,4.0,17.0,38,0.00,,,0.18,VWS V13.01,2013-04-05 23:26:00,
2013-04-05 19:31:00,62.1,36.2,31.68,West,265,4.0,10.0,38,0.00,,,0.18,VWS V13.01,2013-04-05 23:31:00,
2013-04-05 19:36:00,62.0,36.1,31.68,NW,307,6.0,11.0,38,0.00,,,0.18,VWS V13.01,2013-04-05 23:36:00,
2013-04-05 19:41:00,61.8,36.0,31.68,WNW,290,5.0,12.0,38,0.00,,,0.18,VWS V13.01,2013-04-05 23:41:00,
2013-04-05 19:46:00,61.5,35.7,31.68,West,276,9.0,14.0,38,0.00,,,0.18,VWS V13.01,2013-04-05 23:46:00,
2013-04-05 19:51:00,61.2,35.4,31.68,NW,304,6.0,13.0,38,0.00,,,0.18,VWS V13.01,2013-04-05 23:51:00,
2013-04-05 19:56:00,61.1,36.0,32.44,West,281,11.0,12.0,39,0.00,,,0.18,VWS V13.01,2013-04-05 23:56:00,
2013-04-05 20:01:00,60.9,35.8,32.44,West,281,13.0,13.0,39,0.00,,,0.18,VWS V13.01,2013-04-06 00:01:00,
2013-04-05 20:06:00,60.7,36.3,32.44,NW,307,4.0,7.0,40,0.00,,,0.18,VWS V13.01,2013-04-06 00:06:00,
2013-04-05 20:11:00,60.5,35.4,32.44,West,281,6.0,12.0,39,0.00,,,0.18,VWS V13.01,2013-04-06 00:11:00,
2013-04-05 20:16:00,60.3,35.9,32.44,West,277,2.0,8.0,40,0.00,,,0.18,VWS V13.01,2013-04-06 00:16:00,
2013-04-05 20:21:00,60.1,35.7,32.44,WNW,295,4.0,10.0,40,0.00,,,0.18,VWS V13.01,2013-04-06 00:21:00,
2013-04-05 20:26:00,60.0,35.6,32.44,West,281,4.0,9.0,40,0.00,,,0.18,VWS V13.01,2013-04-06 00:26:00,
2013-04-05 20:31:00,59.8,35.5,23.24,West,265,5.0,6.0,40,0.00,,,0.18,VWS V13.01,2013-04-06 00:31:00,
2013-04-05 20:36:00,59.7,35.4,23.24,WNW,293,2.0,4.0,40,0.00,,,0.18,VWS V13.01,2013-04-06 00:36:00,
2013-04-05 20:41:00,59.5,35.2,23.24,NW,306,4.0,6.0,40,0.00,,,0.18,VWS V13.01,2013-04-06 00:41:00,
2013-04-05 20:46:00,59.4,35.1,23.24,WNW,298,3.0,6.0,40,0.00,,,0.18,VWS V13.01,2013-04-06 00:46:00,
2013-04-05 20:51:00,59.0,34.7,23.24,WNW,286,2.0,7.0,40,0.00,,,0.18,VWS V13.01,2013-04-06 00:51:00,
2013-04-05 20:56:00,59.0,35.3,23.24,WNW,282,3.0,5.0,41,0.00,,,0.18,VWS V13.01,2013-04-06 00:56:00,
2013-04-05 21:02:00,59.0,35.3,23.24,West,269,4.0,5.0,41,0.00,,,0.18,VWS V13.01,2013-04-06 01:02:00,
2013-04-05 21:07:00,59.0,34.7,23.24,WNW,289,2.0,6.0,40,0.00,,,0.18,VWS V13.01,2013-04-06 01:07:00,
2013-04-05 21:12:00,58.7,34.5,23.24,West,273,5.0,14.0,40,0.00,,,0.18,VWS V13.01,2013-04-06 01:12:00,
2013-04-05 21:17:00,58.7,33.8,23.24,West,277,6.0,10.0,39,0.00,,,0.18,VWS V13.01,2013-04-06 01:17:00,
2013-04-05 21:22:00,58.6,33.7,23.24,WNW,290,5.0,6.0,39,0.00,,,0.18,VWS V13.01,2013-04-06 01:22:00,
2013-04-05 21:27:00,58.4,33.6,23.24,NW,317,11.0,11.0,39,0.00,,,0.18,VWS V13.01,2013-04-06 01:27:00,
2013-04-05 21:32:00,58.3,34.1,23.24,WSW,252,4.0,5.0,40,0.00,,,0.18,VWS V13.01,2013-04-06 01:32:00,
2013-04-05 21:37:00,58.1,33.3,23.24,WNW,283,3.0,7.0,39,0.00,,,0.18,VWS V13.01,2013-04-06 01:37:00,
2013-04-05 21:42:00,57.8,33.7,23.24,West,267,4.0,5.0,40,0.00,,,0.18,VWS V13.01,2013-04-06 01:42:00,
2013-04-05 21:47:00,57.6,33.5,23.24,West,276,1.0,6.0,40,0.00,,,0.18,VWS V13.01,2013-04-06 01:47:00,
2013-04-05 21:52:00,57.5,33.4,23.24,WNW,282,2.0,6.0,40,0.00,,,0.18,VWS V13.01,2013-04-06 01:52:00,
2013-04-05 21:57:00,57.3,33.2,23.24,WNW,284,3.0,10.0,40,0.00,,,0.18,VWS V13.01,2013-04-06 01:57:00,
2013-04-05 22:02:00,57.1,33.0,23.24,WNW,284,4.0,6.0,40,0.00,,,0.18,VWS V13.01,2013-04-06 02:02:00,
2013-04-05 22:07:00,57.0,32.9,23.24,WSW,246,2.0,10.0,40,0.00,,,0.18,VWS V13.01,2013-04-06 02:07:00,
2013-04-05 22:12:00,56.8,32.1,24.88,West,272,6.0,10.0,39,0.00,,,0.18,VWS V13.01,2013-04-06 02:12:00,
2013-04-05 22:17:00,56.7,32.0,24.88,WSW,249,4.0,11.0,39,0.00,,,0.18,VWS V13.01,2013-04-06 02:17:00,
2013-04-05 22:22:00,56.4,31.8,24.88,West,273,1.0,13.0,39,0.00,,,0.18,VWS V13.01,2013-04-06 02:22:00,
2013-04-05 22:27:00,56.3,31.7,23.24,West,272,3.0,9.0,39,0.00,,,0.18,VWS V13.01,2013-04-06 02:27:00,
2013-04-05 22:32:00,56.0,30.8,23.24,West,277,10.0,13.0,38,0.00,,,0.18,VWS V13.01,2013-04-06 02:32:00,
2013-04-05 22:37:00,55.8,30.6,23.24,West,260,3.0,10.0,38,0.00,,,0.18,VWS V13.01,2013-04-06 02:37:00,
2013-04-05 22:42:00,55.7,30.5,23.25,West,261,2.0,10.0,38,0.00,,,0.18,VWS V13.01,2013-04-06 02:42:00,
2013-04-05 22:47:00,55.5,30.3,23.25,NW,307,3.0,15.0,38,0.00,,,0.18,VWS V13.01,2013-04-06 02:47:00,
2013-04-05 22:52:00,55.3,30.1,23.24,West,271,9.0,13.0,38,0.00,,,0.18,VWS V13.01,2013-04-06 02:52:00,
2013-04-05 22:57:00,55.1,30.0,23.24,WNW,284,9.0,14.0,38,0.00,,,0.18,VWS V13.01,2013-04-06 02:57:00,
2013-04-05 23:02:00,55.0,29.9,23.24,WNW,290,6.0,13.0,38,0.00,,,0.18,VWS V13.01,2013-04-06 03:02:00,
2013-04-05 23:07:00,54.8,30.3,23.24,West,273,4.0,12.0,39,0.00,,,0.18,VWS V13.01,2013-04-06 03:07:00,
2013-04-05 23:12:00,54.6,30.2,23.24,West,273,10.0,12.0,39,0.00,,,0.18,VWS V13.01,2013-04-06 03:12:00,
2013-04-05 23:17:00,54.5,30.1,23.24,West,265,0.0,9.0,39,0.00,,,0.18,VWS V13.01,2013-04-06 03:17:00,
2013-04-05 23:22:00,54.3,29.9,23.24,NW,315,6.0,7.0,39,0.00,,,0.18,VWS V13.01,2013-04-06 03:22:00,
2013-04-05 23:27:00,54.1,29.7,23.24,WNW,283,3.0,14.0,39,0.00,,,0.18,VWS V13.01,2013-04-06 03:27:00,
2013-04-05 23:32:00,53.9,29.5,23.24,West,279,5.0,16.0,39,0.00,,,0.18,VWS V13.01,2013-04-06 03:32:00,
2013-04-05 23:37:00,53.8,29.4,23.24,West,274,9.0,11.0,39,0.00,,,0.18,VWS V13.01,2013-04-06 03:37:00,
2013-04-05 23:42:00,53.7,29.4,23.24,West,261,5.0,11.0,39,0.00,,,0.18,VWS V13.01,2013-04-06 03:42:00,
2013-04-05 23:47:00,53.5,29.2,23.24,West,261,7.0,13.0,39,0.00,,,0.18,VWS V13.01,2013-04-06 03:47:00,
2013-04-05 23:52:00,53.3,29.0,23.24,WNW,293,4.0,15.0,39,0.00,,,0.00,VWS V13.01,2013-04-06 03:52:00,
2013-04-05 23:58:00,53.1,28.8,23.24,West,281,8.0,12.0,39,0.00,,,0.00,VWS V13.01,2013-04-06 03:58:00,